sensor_id;sensor_type;location;lat;lon;timestamp;P1;durP1;ratioP1;P2;durP2;ratioP2
66856;SDS011;53766;50.280;19.160;2023-04-25T00:01:46;5.43;;;3.83;;
66856;SDS011;53766;50.280;19.160;2023-04-25T00:04:14;5.90;;;3.97;;
66856;SDS011;53766;50.280;19.160;2023-04-25T00:06:42;5.85;;;3.90;;
66856;SDS011;53766;50.280;19.160;2023-04-25T00:09:09;5.25;;;3.72;;
66856;SDS011;53766;50.280;19.160;2023-04-25T00:11:37;7.95;;;3.88;;
66856;SDS011;53766;50.280;19.160;2023-04-25T00:14:05;5.47;;;3.72;;
66856;SDS011;53766;50.280;19.160;2023-04-25T00:16:33;6.72;;;3.80;;
66856;SDS011;53766;50.280;19.160;2023-04-25T00:19:02;5.65;;;3.72;;
66856;SDS011;53766;50.280;19.160;2023-04-25T00:21:30;4.93;;;3.60;;
66856;SDS011;53766;50.280;19.160;2023-04-25T00:23:59;5.53;;;3.70;;
66856;SDS011;53766;50.280;19.160;2023-04-25T00:26:27;5.03;;;3.63;;
66856;SDS011;53766;50.280;19.160;2023-04-25T00:28:55;7.35;;;3.88;;
66856;SDS011;53766;50.280;19.160;2023-04-25T00:31:22;5.30;;;3.42;;
66856;SDS011;53766;50.280;19.160;2023-04-25T00:33:50;5.38;;;3.47;;
66856;SDS011;53766;50.280;19.160;2023-04-25T00:36:17;6.28;;;3.80;;
66856;SDS011;53766;50.280;19.160;2023-04-25T00:38:45;4.38;;;3.22;;
66856;SDS011;53766;50.280;19.160;2023-04-25T00:41:13;6.20;;;3.47;;
66856;SDS011;53766;50.280;19.160;2023-04-25T00:43:40;4.95;;;3.45;;
66856;SDS011;53766;50.280;19.160;2023-04-25T00:46:08;5.55;;;3.53;;
66856;SDS011;53766;50.280;19.160;2023-04-25T00:48:36;4.55;;;3.42;;
66856;SDS011;53766;50.280;19.160;2023-04-25T00:51:03;4.60;;;3.38;;
66856;SDS011;53766;50.280;19.160;2023-04-25T00:53:30;6.18;;;3.60;;
66856;SDS011;53766;50.280;19.160;2023-04-25T00:55:59;5.15;;;3.50;;
66856;SDS011;53766;50.280;19.160;2023-04-25T00:58:26;5.53;;;3.40;;
66856;SDS011;53766;50.280;19.160;2023-04-25T01:00:54;5.15;;;3.10;;
66856;SDS011;53766;50.280;19.160;2023-04-25T01:03:23;5.00;;;3.20;;
66856;SDS011;53766;50.280;19.160;2023-04-25T01:05:51;5.00;;;3.15;;
66856;SDS011;53766;50.280;19.160;2023-04-25T01:08:19;5.35;;;3.72;;
66856;SDS011;53766;50.280;19.160;2023-04-25T01:10:50;5.63;;;3.60;;
66856;SDS011;53766;50.280;19.160;2023-04-25T01:13:18;5.20;;;3.60;;
66856;SDS011;53766;50.280;19.160;2023-04-25T01:15:45;4.22;;;3.25;;
66856;SDS011;53766;50.280;19.160;2023-04-25T01:18:13;4.88;;;3.38;;
66856;SDS011;53766;50.280;19.160;2023-04-25T01:20:41;4.93;;;3.00;;
66856;SDS011;53766;50.280;19.160;2023-04-25T01:23:09;5.05;;;3.22;;
66856;SDS011;53766;50.280;19.160;2023-04-25T01:25:37;4.28;;;3.28;;
66856;SDS011;53766;50.280;19.160;2023-04-25T01:28:05;5.60;;;3.28;;
66856;SDS011;53766;50.280;19.160;2023-04-25T01:30:32;5.55;;;3.45;;
66856;SDS011;53766;50.280;19.160;2023-04-25T01:33:00;4.75;;;3.10;;
66856;SDS011;53766;50.280;19.160;2023-04-25T01:35:29;4.53;;;3.13;;
66856;SDS011;53766;50.280;19.160;2023-04-25T01:37:57;4.65;;;3.10;;
66856;SDS011;53766;50.280;19.160;2023-04-25T01:40:25;4.82;;;3.17;;
66856;SDS011;53766;50.280;19.160;2023-04-25T01:42:55;4.82;;;3.15;;
66856;SDS011;53766;50.280;19.160;2023-04-25T01:45:22;4.53;;;3.17;;
66856;SDS011;53766;50.280;19.160;2023-04-25T01:47:49;4.97;;;3.22;;
66856;SDS011;53766;50.280;19.160;2023-04-25T01:50:18;5.40;;;3.00;;
66856;SDS011;53766;50.280;19.160;2023-04-25T01:52:46;4.68;;;3.22;;
66856;SDS011;53766;50.280;19.160;2023-04-25T01:55:13;4.78;;;3.20;;
66856;SDS011;53766;50.280;19.160;2023-04-25T01:57:41;4.65;;;3.00;;
66856;SDS011;53766;50.280;19.160;2023-04-25T02:00:08;4.88;;;2.90;;
66856;SDS011;53766;50.280;19.160;2023-04-25T02:02:37;4.40;;;3.25;;
66856;SDS011;53766;50.280;19.160;2023-04-25T02:05:04;5.05;;;3.20;;
66856;SDS011;53766;50.280;19.160;2023-04-25T02:07:32;5.20;;;2.83;;
66856;SDS011;53766;50.280;19.160;2023-04-25T02:10:00;4.57;;;3.00;;
66856;SDS011;53766;50.280;19.160;2023-04-25T02:12:27;4.60;;;2.90;;
66856;SDS011;53766;50.280;19.160;2023-04-25T02:14:55;4.38;;;2.95;;
66856;SDS011;53766;50.280;19.160;2023-04-25T02:17:22;4.43;;;2.90;;
66856;SDS011;53766;50.280;19.160;2023-04-25T02:19:50;4.88;;;3.05;;
66856;SDS011;53766;50.280;19.160;2023-04-25T02:22:17;3.92;;;2.83;;
66856;SDS011;53766;50.280;19.160;2023-04-25T02:24:45;3.97;;;2.85;;
66856;SDS011;53766;50.280;19.160;2023-04-25T02:27:13;4.05;;;2.67;;
66856;SDS011;53766;50.280;19.160;2023-04-25T02:29:40;3.53;;;2.90;;
66856;SDS011;53766;50.280;19.160;2023-04-25T02:32:08;3.60;;;2.85;;
66856;SDS011;53766;50.280;19.160;2023-04-25T02:34:35;4.18;;;2.92;;
66856;SDS011;53766;50.280;19.160;2023-04-25T02:37:02;4.35;;;3.00;;
66856;SDS011;53766;50.280;19.160;2023-04-25T02:39:30;4.10;;;2.88;;
66856;SDS011;53766;50.280;19.160;2023-04-25T02:41:57;4.30;;;2.50;;
66856;SDS011;53766;50.280;19.160;2023-04-25T02:44:25;4.57;;;2.88;;
66856;SDS011;53766;50.280;19.160;2023-04-25T02:46:52;3.83;;;2.42;;
66856;SDS011;53766;50.280;19.160;2023-04-25T02:49:20;5.00;;;3.10;;
66856;SDS011;53766;50.280;19.160;2023-04-25T02:51:48;4.32;;;2.83;;
66856;SDS011;53766;50.280;19.160;2023-04-25T02:54:15;5.50;;;3.00;;
66856;SDS011;53766;50.280;19.160;2023-04-25T02:56:42;4.00;;;2.70;;
66856;SDS011;53766;50.280;19.160;2023-04-25T02:59:10;5.97;;;2.85;;
66856;SDS011;53766;50.280;19.160;2023-04-25T03:01:37;3.92;;;2.75;;
66856;SDS011;53766;50.280;19.160;2023-04-25T03:04:04;3.30;;;2.42;;
66856;SDS011;53766;50.280;19.160;2023-04-25T03:06:32;3.40;;;2.47;;
66856;SDS011;53766;50.280;19.160;2023-04-25T03:08:59;4.03;;;2.60;;
66856;SDS011;53766;50.280;19.160;2023-04-25T03:11:27;5.13;;;2.83;;
66856;SDS011;53766;50.280;19.160;2023-04-25T03:13:54;4.22;;;2.90;;
66856;SDS011;53766;50.280;19.160;2023-04-25T03:16:22;3.90;;;2.60;;
66856;SDS011;53766;50.280;19.160;2023-04-25T03:18:49;3.38;;;2.50;;
66856;SDS011;53766;50.280;19.160;2023-04-25T03:21:17;3.47;;;2.70;;
66856;SDS011;53766;50.280;19.160;2023-04-25T03:23:45;3.90;;;2.58;;
66856;SDS011;53766;50.280;19.160;2023-04-25T03:26:13;4.60;;;2.72;;
66856;SDS011;53766;50.280;19.160;2023-04-25T03:28:41;4.28;;;2.60;;
66856;SDS011;53766;50.280;19.160;2023-04-25T03:31:08;5.30;;;2.80;;
66856;SDS011;53766;50.280;19.160;2023-04-25T03:33:36;4.43;;;2.40;;
66856;SDS011;53766;50.280;19.160;2023-04-25T03:36:04;3.47;;;2.42;;
66856;SDS011;53766;50.280;19.160;2023-04-25T03:38:32;4.07;;;2.63;;
66856;SDS011;53766;50.280;19.160;2023-04-25T03:41:00;3.58;;;2.40;;
66856;SDS011;53766;50.280;19.160;2023-04-25T03:43:28;3.42;;;2.53;;
66856;SDS011;53766;50.280;19.160;2023-04-25T03:45:55;3.42;;;2.35;;
66856;SDS011;53766;50.280;19.160;2023-04-25T03:48:23;3.75;;;2.45;;
66856;SDS011;53766;50.280;19.160;2023-04-25T03:50:53;4.15;;;2.70;;
66856;SDS011;53766;50.280;19.160;2023-04-25T03:53:21;4.35;;;2.70;;
66856;SDS011;53766;50.280;19.160;2023-04-25T03:55:48;3.63;;;2.40;;
66856;SDS011;53766;50.280;19.160;2023-04-25T03:58:16;3.58;;;2.30;;
66856;SDS011;53766;50.280;19.160;2023-04-25T04:00:44;3.85;;;2.70;;
66856;SDS011;53766;50.280;19.160;2023-04-25T04:03:11;3.75;;;2.65;;
66856;SDS011;53766;50.280;19.160;2023-04-25T04:05:39;4.18;;;2.58;;
66856;SDS011;53766;50.280;19.160;2023-04-25T04:08:07;4.07;;;2.40;;
66856;SDS011;53766;50.280;19.160;2023-04-25T04:10:35;4.57;;;2.40;;
66856;SDS011;53766;50.280;19.160;2023-04-25T04:13:02;4.95;;;2.50;;
66856;SDS011;53766;50.280;19.160;2023-04-25T04:15:30;6.85;;;2.90;;
66856;SDS011;53766;50.280;19.160;2023-04-25T04:18:00;4.38;;;2.58;;
66856;SDS011;53766;50.280;19.160;2023-04-25T04:20:30;7.38;;;2.75;;
66856;SDS011;53766;50.280;19.160;2023-04-25T04:22:57;5.57;;;2.60;;
66856;SDS011;53766;50.280;19.160;2023-04-25T04:25:25;6.20;;;2.60;;
66856;SDS011;53766;50.280;19.160;2023-04-25T04:27:53;6.85;;;2.60;;
66856;SDS011;53766;50.280;19.160;2023-04-25T04:30:22;5.22;;;2.55;;
66856;SDS011;53766;50.280;19.160;2023-04-25T04:32:56;8.80;;;2.80;;
66856;SDS011;53766;50.280;19.160;2023-04-25T04:35:24;6.60;;;2.53;;
66856;SDS011;53766;50.280;19.160;2023-04-25T04:37:51;7.28;;;2.33;;
66856;SDS011;53766;50.280;19.160;2023-04-25T04:40:19;8.57;;;2.45;;
66856;SDS011;53766;50.280;19.160;2023-04-25T04:42:47;6.05;;;2.55;;
66856;SDS011;53766;50.280;19.160;2023-04-25T04:45:15;7.47;;;2.60;;
66856;SDS011;53766;50.280;19.160;2023-04-25T04:47:43;7.13;;;2.60;;
66856;SDS011;53766;50.280;19.160;2023-04-25T04:50:11;4.70;;;2.80;;
66856;SDS011;53766;50.280;19.160;2023-04-25T04:52:38;4.13;;;2.20;;
66856;SDS011;53766;50.280;19.160;2023-04-25T04:55:06;4.18;;;2.50;;
66856;SDS011;53766;50.280;19.160;2023-04-25T04:57:34;3.83;;;2.15;;
66856;SDS011;53766;50.280;19.160;2023-04-25T05:00:03;5.32;;;2.17;;
66856;SDS011;53766;50.280;19.160;2023-04-25T05:02:38;6.68;;;2.38;;
66856;SDS011;53766;50.280;19.160;2023-04-25T05:05:06;3.75;;;2.30;;
66856;SDS011;53766;50.280;19.160;2023-04-25T05:07:34;5.82;;;2.58;;
66856;SDS011;53766;50.280;19.160;2023-04-25T05:10:02;7.50;;;2.47;;
66856;SDS011;53766;50.280;19.160;2023-04-25T05:12:30;3.80;;;2.10;;
66856;SDS011;53766;50.280;19.160;2023-04-25T05:14:57;5.90;;;2.30;;
66856;SDS011;53766;50.280;19.160;2023-04-25T05:17:25;4.22;;;2.30;;
66856;SDS011;53766;50.280;19.160;2023-04-25T05:19:52;4.07;;;2.10;;
66856;SDS011;53766;50.280;19.160;2023-04-25T05:22:20;5.22;;;2.15;;
66856;SDS011;53766;50.280;19.160;2023-04-25T05:24:47;4.97;;;2.10;;
66856;SDS011;53766;50.280;19.160;2023-04-25T05:27:16;5.75;;;2.15;;
66856;SDS011;53766;50.280;19.160;2023-04-25T05:29:44;5.22;;;2.30;;
66856;SDS011;53766;50.280;19.160;2023-04-25T05:32:12;6.00;;;2.30;;
66856;SDS011;53766;50.280;19.160;2023-04-25T05:34:39;3.97;;;2.15;;
66856;SDS011;53766;50.280;19.160;2023-04-25T05:37:07;5.72;;;2.03;;
66856;SDS011;53766;50.280;19.160;2023-04-25T05:39:34;2.55;;;1.80;;
66856;SDS011;53766;50.280;19.160;2023-04-25T05:42:02;4.70;;;2.25;;
66856;SDS011;53766;50.280;19.160;2023-04-25T05:44:30;4.32;;;2.15;;
66856;SDS011;53766;50.280;19.160;2023-04-25T05:46:58;5.97;;;2.13;;
66856;SDS011;53766;50.280;19.160;2023-04-25T05:49:26;5.47;;;1.90;;
66856;SDS011;53766;50.280;19.160;2023-04-25T05:51:53;8.90;;;2.30;;
66856;SDS011;53766;50.280;19.160;2023-04-25T05:54:21;3.40;;;1.90;;
66856;SDS011;53766;50.280;19.160;2023-04-25T05:56:48;4.38;;;1.80;;
66856;SDS011;53766;50.280;19.160;2023-04-25T05:59:16;3.58;;;1.73;;
66856;SDS011;53766;50.280;19.160;2023-04-25T06:01:44;2.85;;;1.73;;
66856;SDS011;53766;50.280;19.160;2023-04-25T06:04:11;3.15;;;1.58;;
66856;SDS011;53766;50.280;19.160;2023-04-25T06:06:39;4.50;;;1.80;;
66856;SDS011;53766;50.280;19.160;2023-04-25T06:09:07;6.53;;;1.85;;
66856;SDS011;53766;50.280;19.160;2023-04-25T06:11:34;3.42;;;1.90;;
66856;SDS011;53766;50.280;19.160;2023-04-25T06:14:01;3.35;;;1.63;;
66856;SDS011;53766;50.280;19.160;2023-04-25T06:16:29;3.65;;;1.73;;
66856;SDS011;53766;50.280;19.160;2023-04-25T06:18:57;3.72;;;2.10;;
66856;SDS011;53766;50.280;19.160;2023-04-25T06:21:24;4.50;;;1.77;;
66856;SDS011;53766;50.280;19.160;2023-04-25T06:23:52;3.42;;;1.60;;
66856;SDS011;53766;50.280;19.160;2023-04-25T06:26:20;3.22;;;1.80;;
66856;SDS011;53766;50.280;19.160;2023-04-25T06:28:48;4.00;;;1.60;;
66856;SDS011;53766;50.280;19.160;2023-04-25T06:31:15;3.20;;;1.65;;
66856;SDS011;53766;50.280;19.160;2023-04-25T06:33:42;3.20;;;1.63;;
66856;SDS011;53766;50.280;19.160;2023-04-25T06:36:10;3.47;;;1.90;;
66856;SDS011;53766;50.280;19.160;2023-04-25T06:38:37;3.25;;;1.75;;
66856;SDS011;53766;50.280;19.160;2023-04-25T06:41:05;6.10;;;1.77;;
66856;SDS011;53766;50.280;19.160;2023-04-25T06:43:32;4.50;;;1.67;;
66856;SDS011;53766;50.280;19.160;2023-04-25T06:46:00;4.63;;;1.80;;
66856;SDS011;53766;50.280;19.160;2023-04-25T06:48:28;3.72;;;1.60;;
66856;SDS011;53766;50.280;19.160;2023-04-25T06:50:55;2.55;;;1.60;;
66856;SDS011;53766;50.280;19.160;2023-04-25T06:53:23;3.95;;;1.73;;
66856;SDS011;53766;50.280;19.160;2023-04-25T06:55:51;12.60;;;1.92;;
66856;SDS011;53766;50.280;19.160;2023-04-25T06:58:18;3.22;;;1.80;;
66856;SDS011;53766;50.280;19.160;2023-04-25T07:00:45;5.40;;;2.20;;
66856;SDS011;53766;50.280;19.160;2023-04-25T07:03:13;4.72;;;1.50;;
66856;SDS011;53766;50.280;19.160;2023-04-25T07:05:41;3.25;;;1.60;;
66856;SDS011;53766;50.280;19.160;2023-04-25T07:08:08;3.20;;;1.42;;
66856;SDS011;53766;50.280;19.160;2023-04-25T07:10:36;3.55;;;1.65;;
66856;SDS011;53766;50.280;19.160;2023-04-25T07:13:03;2.25;;;1.40;;
66856;SDS011;53766;50.280;19.160;2023-04-25T07:15:31;2.85;;;1.60;;
66856;SDS011;53766;50.280;19.160;2023-04-25T07:17:58;2.95;;;1.60;;
66856;SDS011;53766;50.280;19.160;2023-04-25T07:20:26;3.90;;;1.50;;
66856;SDS011;53766;50.280;19.160;2023-04-25T07:22:54;3.25;;;1.58;;
66856;SDS011;53766;50.280;19.160;2023-04-25T07:25:22;6.18;;;1.50;;
66856;SDS011;53766;50.280;19.160;2023-04-25T07:27:49;4.97;;;1.55;;
66856;SDS011;53766;50.280;19.160;2023-04-25T07:30:17;4.13;;;1.73;;
66856;SDS011;53766;50.280;19.160;2023-04-25T07:32:44;6.22;;;1.60;;
66856;SDS011;53766;50.280;19.160;2023-04-25T07:35:12;3.72;;;1.55;;
66856;SDS011;53766;50.280;19.160;2023-04-25T07:37:39;3.10;;;1.48;;
66856;SDS011;53766;50.280;19.160;2023-04-25T07:40:07;4.72;;;1.50;;
66856;SDS011;53766;50.280;19.160;2023-04-25T07:42:36;2.55;;;1.40;;
66856;SDS011;53766;50.280;19.160;2023-04-25T07:45:04;3.55;;;1.35;;
66856;SDS011;53766;50.280;19.160;2023-04-25T07:47:31;5.40;;;1.40;;
66856;SDS011;53766;50.280;19.160;2023-04-25T07:49:59;5.35;;;1.52;;
66856;SDS011;53766;50.280;19.160;2023-04-25T07:52:27;5.70;;;1.40;;
66856;SDS011;53766;50.280;19.160;2023-04-25T07:54:55;3.17;;;1.50;;
66856;SDS011;53766;50.280;19.160;2023-04-25T07:57:23;4.05;;;1.40;;
66856;SDS011;53766;50.280;19.160;2023-04-25T07:59:51;2.28;;;1.35;;
66856;SDS011;53766;50.280;19.160;2023-04-25T08:02:19;8.50;;;1.55;;
66856;SDS011;53766;50.280;19.160;2023-04-25T08:04:47;4.45;;;1.60;;
66856;SDS011;53766;50.280;19.160;2023-04-25T08:07:16;4.75;;;1.35;;
66856;SDS011;53766;50.280;19.160;2023-04-25T08:09:44;3.33;;;1.50;;
66856;SDS011;53766;50.280;19.160;2023-04-25T08:12:11;4.75;;;1.63;;
66856;SDS011;53766;50.280;19.160;2023-04-25T08:14:39;3.70;;;1.50;;
66856;SDS011;53766;50.280;19.160;2023-04-25T08:17:06;4.88;;;1.50;;
66856;SDS011;53766;50.280;19.160;2023-04-25T08:19:34;4.20;;;1.58;;
66856;SDS011;53766;50.280;19.160;2023-04-25T08:22:01;3.67;;;2.10;;
66856;SDS011;53766;50.280;19.160;2023-04-25T08:24:29;12.82;;;5.45;;
66856;SDS011;53766;50.280;19.160;2023-04-25T08:26:56;18.27;;;8.95;;
66856;SDS011;53766;50.280;19.160;2023-04-25T08:29:25;14.50;;;6.00;;
66856;SDS011;53766;50.280;19.160;2023-04-25T08:31:53;11.93;;;5.88;;
66856;SDS011;53766;50.280;19.160;2023-04-25T08:34:21;11.10;;;5.85;;
66856;SDS011;53766;50.280;19.160;2023-04-25T08:36:48;9.65;;;5.65;;
66856;SDS011;53766;50.280;19.160;2023-04-25T08:39:16;12.45;;;5.15;;
66856;SDS011;53766;50.280;19.160;2023-04-25T08:41:43;11.70;;;5.15;;
66856;SDS011;53766;50.280;19.160;2023-04-25T08:44:12;9.18;;;4.80;;
66856;SDS011;53766;50.280;19.160;2023-04-25T08:46:40;9.98;;;5.45;;
66856;SDS011;53766;50.280;19.160;2023-04-25T08:49:08;7.90;;;4.85;;
66856;SDS011;53766;50.280;19.160;2023-04-25T08:51:36;8.25;;;4.60;;
66856;SDS011;53766;50.280;19.160;2023-04-25T08:54:11;9.02;;;4.50;;
66856;SDS011;53766;50.280;19.160;2023-04-25T08:56:45;8.50;;;4.57;;
66856;SDS011;53766;50.280;19.160;2023-04-25T08:59:14;10.98;;;4.30;;
66856;SDS011;53766;50.280;19.160;2023-04-25T09:01:42;9.88;;;4.40;;
66856;SDS011;53766;50.280;19.160;2023-04-25T09:04:09;7.28;;;3.95;;
66856;SDS011;53766;50.280;19.160;2023-04-25T09:06:39;6.55;;;3.95;;
66856;SDS011;53766;50.280;19.160;2023-04-25T09:09:07;9.52;;;4.38;;
66856;SDS011;53766;50.280;19.160;2023-04-25T09:11:36;8.68;;;4.30;;
66856;SDS011;53766;50.280;19.160;2023-04-25T09:14:12;7.93;;;3.90;;
66856;SDS011;53766;50.280;19.160;2023-04-25T09:19:32;7.75;;;3.70;;
66856;SDS011;53766;50.280;19.160;2023-04-25T09:22:08;8.80;;;4.13;;
66856;SDS011;53766;50.280;19.160;2023-04-25T09:24:37;7.45;;;3.97;;
66856;SDS011;53766;50.280;19.160;2023-04-25T09:27:11;7.03;;;3.43;;
66856;SDS011;53766;50.280;19.160;2023-04-25T09:29:40;7.43;;;3.38;;
66856;SDS011;53766;50.280;19.160;2023-04-25T09:32:16;7.00;;;3.55;;
66856;SDS011;53766;50.280;19.160;2023-04-25T09:37:26;5.60;;;3.28;;
66856;SDS011;53766;50.280;19.160;2023-04-25T09:39:55;6.40;;;3.25;;
66856;SDS011;53766;50.280;19.160;2023-04-25T09:42:29;6.30;;;3.33;;
66856;SDS011;53766;50.280;19.160;2023-04-25T09:44:59;6.53;;;3.17;;
66856;SDS011;53766;50.280;19.160;2023-04-25T09:47:29;5.65;;;3.50;;
66856;SDS011;53766;50.280;19.160;2023-04-25T09:49:56;11.55;;;4.10;;
66856;SDS011;53766;50.280;19.160;2023-04-25T09:52:24;11.63;;;5.03;;
66856;SDS011;53766;50.280;19.160;2023-04-25T09:54:52;11.60;;;4.78;;
66856;SDS011;53766;50.280;19.160;2023-04-25T09:57:20;11.60;;;4.60;;
66856;SDS011;53766;50.280;19.160;2023-04-25T09:59:51;10.85;;;4.70;;
66856;SDS011;53766;50.280;19.160;2023-04-25T10:02:24;11.43;;;5.43;;
66856;SDS011;53766;50.280;19.160;2023-04-25T10:04:53;10.45;;;4.40;;
66856;SDS011;53766;50.280;19.160;2023-04-25T10:07:23;13.13;;;4.55;;
66856;SDS011;53766;50.280;19.160;2023-04-25T10:10:00;11.68;;;4.30;;
66856;SDS011;53766;50.280;19.160;2023-04-25T10:12:30;9.55;;;4.32;;
66856;SDS011;53766;50.280;19.160;2023-04-25T10:15:00;10.80;;;4.55;;
66856;SDS011;53766;50.280;19.160;2023-04-25T10:17:28;12.85;;;4.30;;
66856;SDS011;53766;50.280;19.160;2023-04-25T10:19:56;10.07;;;4.32;;
66856;SDS011;53766;50.280;19.160;2023-04-25T10:22:34;9.18;;;4.40;;
66856;SDS011;53766;50.280;19.160;2023-04-25T10:25:03;9.27;;;4.00;;
66856;SDS011;53766;50.280;19.160;2023-04-25T10:27:33;9.65;;;3.90;;
66856;SDS011;53766;50.280;19.160;2023-04-25T10:32:38;6.60;;;3.50;;
66856;SDS011;53766;50.280;19.160;2023-04-25T10:35:15;7.30;;;3.40;;
66856;SDS011;53766;50.280;19.160;2023-04-25T10:40:24;8.52;;;3.53;;
66856;SDS011;53766;50.280;19.160;2023-04-25T10:42:52;7.57;;;3.25;;
66856;SDS011;53766;50.280;19.160;2023-04-25T10:45:23;7.00;;;3.10;;
66856;SDS011;53766;50.280;19.160;2023-04-25T10:47:51;6.93;;;3.30;;
66856;SDS011;53766;50.280;19.160;2023-04-25T10:50:18;9.80;;;3.22;;
66856;SDS011;53766;50.280;19.160;2023-04-25T10:52:46;5.75;;;3.13;;
66856;SDS011;53766;50.280;19.160;2023-04-25T10:55:13;5.25;;;2.90;;
66856;SDS011;53766;50.280;19.160;2023-04-25T11:00:13;8.38;;;3.00;;
66856;SDS011;53766;50.280;19.160;2023-04-25T11:02:45;7.63;;;3.00;;
66856;SDS011;53766;50.280;19.160;2023-04-25T11:05:16;6.18;;;3.20;;
66856;SDS011;53766;50.280;19.160;2023-04-25T11:07:51;7.60;;;3.20;;
66856;SDS011;53766;50.280;19.160;2023-04-25T11:10:33;7.25;;;3.45;;
66856;SDS011;53766;50.280;19.160;2023-04-25T11:13:04;6.13;;;2.90;;
66856;SDS011;53766;50.280;19.160;2023-04-25T11:15:32;6.22;;;2.95;;
66856;SDS011;53766;50.280;19.160;2023-04-25T11:17:59;8.60;;;2.90;;
66856;SDS011;53766;50.280;19.160;2023-04-25T11:20:28;5.22;;;2.72;;
66856;SDS011;53766;50.280;19.160;2023-04-25T11:22:58;4.90;;;2.85;;
66856;SDS011;53766;50.280;19.160;2023-04-25T11:25:27;5.82;;;2.90;;
66856;SDS011;53766;50.280;19.160;2023-04-25T11:27:57;5.38;;;2.72;;
66856;SDS011;53766;50.280;19.160;2023-04-25T11:30:26;7.50;;;2.70;;
66856;SDS011;53766;50.280;19.160;2023-04-25T11:32:53;4.60;;;2.58;;
66856;SDS011;53766;50.280;19.160;2023-04-25T11:35:21;9.60;;;2.70;;
66856;SDS011;53766;50.280;19.160;2023-04-25T11:37:50;6.20;;;2.58;;
66856;SDS011;53766;50.280;19.160;2023-04-25T11:40:18;6.38;;;2.70;;
66856;SDS011;53766;50.280;19.160;2023-04-25T11:42:46;6.30;;;2.25;;
66856;SDS011;53766;50.280;19.160;2023-04-25T11:45:14;5.00;;;2.50;;
66856;SDS011;53766;50.280;19.160;2023-04-25T11:47:42;5.22;;;2.28;;
66856;SDS011;53766;50.280;19.160;2023-04-25T11:50:09;3.50;;;2.25;;
66856;SDS011;53766;50.280;19.160;2023-04-25T11:52:41;4.47;;;2.30;;
66856;SDS011;53766;50.280;19.160;2023-04-25T11:55:12;6.68;;;2.47;;
66856;SDS011;53766;50.280;19.160;2023-04-25T11:57:45;7.43;;;2.20;;
66856;SDS011;53766;50.280;19.160;2023-04-25T12:00:16;7.57;;;2.55;;
66856;SDS011;53766;50.280;19.160;2023-04-25T12:02:46;4.97;;;2.20;;
66856;SDS011;53766;50.280;19.160;2023-04-25T12:05:15;6.82;;;2.90;;
66856;SDS011;53766;50.280;19.160;2023-04-25T12:08:09;6.70;;;2.05;;
66856;SDS011;53766;50.280;19.160;2023-04-25T12:10:40;5.63;;;2.50;;
66856;SDS011;53766;50.280;19.160;2023-04-25T12:13:25;4.05;;;2.20;;
66856;SDS011;53766;50.280;19.160;2023-04-25T12:15:55;3.35;;;2.00;;
66856;SDS011;53766;50.280;19.160;2023-04-25T12:18:23;4.07;;;2.20;;
66856;SDS011;53766;50.280;19.160;2023-04-25T12:20:54;5.40;;;2.20;;
66856;SDS011;53766;50.280;19.160;2023-04-25T12:23:28;6.07;;;2.30;;
66856;SDS011;53766;50.280;19.160;2023-04-25T12:25:55;5.53;;;2.20;;
66856;SDS011;53766;50.280;19.160;2023-04-25T12:28:24;6.50;;;2.00;;
66856;SDS011;53766;50.280;19.160;2023-04-25T12:30:57;4.53;;;2.22;;
66856;SDS011;53766;50.280;19.160;2023-04-25T12:33:31;7.20;;;2.25;;
66856;SDS011;53766;50.280;19.160;2023-04-25T12:36:00;4.93;;;1.90;;
66856;SDS011;53766;50.280;19.160;2023-04-25T12:38:35;5.22;;;2.10;;
66856;SDS011;53766;50.280;19.160;2023-04-25T12:41:04;4.15;;;2.42;;
66856;SDS011;53766;50.280;19.160;2023-04-25T12:43:31;3.88;;;1.88;;
66856;SDS011;53766;50.280;19.160;2023-04-25T12:45:59;3.70;;;2.08;;
66856;SDS011;53766;50.280;19.160;2023-04-25T12:48:27;3.63;;;2.00;;
66856;SDS011;53766;50.280;19.160;2023-04-25T12:50:55;4.88;;;2.10;;
66856;SDS011;53766;50.280;19.160;2023-04-25T12:53:23;5.95;;;2.22;;
66856;SDS011;53766;50.280;19.160;2023-04-25T12:55:53;7.63;;;2.05;;
66856;SDS011;53766;50.280;19.160;2023-04-25T12:58:22;5.10;;;1.98;;
66856;SDS011;53766;50.280;19.160;2023-04-25T13:00:50;4.07;;;2.08;;
66856;SDS011;53766;50.280;19.160;2023-04-25T13:03:18;5.30;;;1.85;;
66856;SDS011;53766;50.280;19.160;2023-04-25T13:05:45;4.75;;;1.95;;
66856;SDS011;53766;50.280;19.160;2023-04-25T13:08:13;3.60;;;1.92;;
66856;SDS011;53766;50.280;19.160;2023-04-25T13:10:40;3.92;;;2.05;;
66856;SDS011;53766;50.280;19.160;2023-04-25T13:13:08;3.35;;;2.00;;
66856;SDS011;53766;50.280;19.160;2023-04-25T13:15:36;5.43;;;2.05;;
66856;SDS011;53766;50.280;19.160;2023-04-25T13:18:04;3.75;;;2.00;;
66856;SDS011;53766;50.280;19.160;2023-04-25T13:20:35;4.65;;;1.70;;
66856;SDS011;53766;50.280;19.160;2023-04-25T13:23:02;3.05;;;2.00;;
66856;SDS011;53766;50.280;19.160;2023-04-25T13:25:30;4.25;;;2.00;;
66856;SDS011;53766;50.280;19.160;2023-04-25T13:27:57;3.78;;;1.88;;
66856;SDS011;53766;50.280;19.160;2023-04-25T13:30:25;3.53;;;1.60;;
66856;SDS011;53766;50.280;19.160;2023-04-25T13:32:53;3.90;;;1.70;;
66856;SDS011;53766;50.280;19.160;2023-04-25T13:35:23;3.55;;;1.98;;
66856;SDS011;53766;50.280;19.160;2023-04-25T13:37:50;3.70;;;2.00;;
66856;SDS011;53766;50.280;19.160;2023-04-25T13:40:18;4.93;;;1.85;;
66856;SDS011;53766;50.280;19.160;2023-04-25T13:42:45;3.75;;;1.70;;
66856;SDS011;53766;50.280;19.160;2023-04-25T13:45:13;4.97;;;1.80;;
66856;SDS011;53766;50.280;19.160;2023-04-25T13:47:40;3.67;;;1.70;;
66856;SDS011;53766;50.280;19.160;2023-04-25T13:50:08;3.17;;;1.85;;
66856;SDS011;53766;50.280;19.160;2023-04-25T13:52:36;3.50;;;1.65;;
66856;SDS011;53766;50.280;19.160;2023-04-25T13:55:04;3.67;;;1.70;;
66856;SDS011;53766;50.280;19.160;2023-04-25T13:57:34;3.17;;;1.88;;
66856;SDS011;53766;50.280;19.160;2023-04-25T14:00:02;3.80;;;1.88;;
66856;SDS011;53766;50.280;19.160;2023-04-25T14:02:36;3.17;;;1.73;;
66856;SDS011;53766;50.280;19.160;2023-04-25T14:05:04;3.15;;;1.70;;
66856;SDS011;53766;50.280;19.160;2023-04-25T14:07:33;3.63;;;1.80;;
66856;SDS011;53766;50.280;19.160;2023-04-25T14:10:02;4.18;;;1.75;;
66856;SDS011;53766;50.280;19.160;2023-04-25T14:12:32;5.32;;;1.80;;
66856;SDS011;53766;50.280;19.160;2023-04-25T14:14:59;4.05;;;1.73;;
66856;SDS011;53766;50.280;19.160;2023-04-25T14:17:27;3.70;;;1.58;;
66856;SDS011;53766;50.280;19.160;2023-04-25T14:19:54;3.50;;;1.83;;
66856;SDS011;53766;50.280;19.160;2023-04-25T14:22:22;2.58;;;1.60;;
66856;SDS011;53766;50.280;19.160;2023-04-25T14:24:49;3.53;;;2.00;;
66856;SDS011;53766;50.280;19.160;2023-04-25T14:27:17;4.25;;;2.00;;
66856;SDS011;53766;50.280;19.160;2023-04-25T14:29:45;3.40;;;1.60;;
66856;SDS011;53766;50.280;19.160;2023-04-25T14:32:13;3.17;;;1.90;;
66856;SDS011;53766;50.280;19.160;2023-04-25T14:34:40;3.05;;;1.60;;
66856;SDS011;53766;50.280;19.160;2023-04-25T14:37:08;3.30;;;1.70;;
66856;SDS011;53766;50.280;19.160;2023-04-25T14:39:35;2.38;;;1.58;;
66856;SDS011;53766;50.280;19.160;2023-04-25T14:42:03;3.22;;;1.73;;
66856;SDS011;53766;50.280;19.160;2023-04-25T14:44:31;2.67;;;1.70;;
66856;SDS011;53766;50.280;19.160;2023-04-25T14:46:58;4.53;;;1.83;;
66856;SDS011;53766;50.280;19.160;2023-04-25T14:49:26;3.50;;;1.70;;
66856;SDS011;53766;50.280;19.160;2023-04-25T14:51:55;3.20;;;1.60;;
66856;SDS011;53766;50.280;19.160;2023-04-25T14:54:22;3.60;;;1.73;;